sensor_id;sensor_type;location;lat;lon;timestamp;pressure;altitude;pressure_sealevel;temperature;humidity
69223;BME280;56514;51.816;-0.026;2023-02-27T00:02:30;102577.25;;;2.38;60.70
69223;BME280;56514;51.816;-0.026;2023-02-27T00:05:35;102579.88;;;2.39;60.58
69223;BME280;56514;51.816;-0.026;2023-02-27T00:08:43;102576.38;;;2.39;60.51
69223;BME280;56514;51.816;-0.026;2023-02-27T00:11:47;102579.88;;;2.39;61.35
69223;BME280;56514;51.816;-0.026;2023-02-27T00:14:51;102579.84;;;2.41;61.53
69223;BME280;56514;51.816;-0.026;2023-02-27T00:17:58;102582.44;;;2.42;62.55
69223;BME280;56514;51.816;-0.026;2023-02-27T00:21:05;102585.03;;;2.45;62.03
69223;BME280;56514;51.816;-0.026;2023-02-27T00:24:16;102579.84;;;2.44;61.57
69223;BME280;56514;51.816;-0.026;2023-02-27T00:27:25;102577.25;;;2.42;62.05
69223;BME280;56514;51.816;-0.026;2023-02-27T00:30:34;102567.69;;;2.40;61.85
69223;BME280;56514;51.816;-0.026;2023-02-27T00:33:20;102575.50;;;2.41;62.33
69223;BME280;56514;51.816;-0.026;2023-02-27T00:36:05;102570.28;;;2.40;61.84
69223;BME280;56514;51.816;-0.026;2023-02-27T00:38:50;102578.09;;;2.40;61.99
69223;BME280;56514;51.816;-0.026;2023-02-27T00:41:35;102571.16;;;2.39;62.27
69223;BME280;56514;51.816;-0.026;2023-02-27T00:44:20;102569.44;;;2.35;62.21
69223;BME280;56514;51.816;-0.026;2023-02-27T00:47:05;102563.38;;;2.34;62.22
69223;BME280;56514;51.816;-0.026;2023-02-27T00:49:50;102574.66;;;2.33;62.34
69223;BME280;56514;51.816;-0.026;2023-02-27T00:52:35;102568.59;;;2.31;62.51
69223;BME280;56514;51.816;-0.026;2023-02-27T00:55:20;102567.72;;;2.31;62.10
69223;BME280;56514;51.816;-0.026;2023-02-27T00:58:05;102573.81;;;2.30;62.87
69223;BME280;56514;51.816;-0.026;2023-02-27T01:00:50;102575.56;;;2.29;62.33
69223;BME280;56514;51.816;-0.026;2023-02-27T01:03:35;102581.66;;;2.27;63.36
69223;BME280;56514;51.816;-0.026;2023-02-27T01:06:21;102582.47;;;2.32;62.99
69223;BME280;56514;51.816;-0.026;2023-02-27T01:09:06;102582.44;;;2.35;63.27
69223;BME280;56514;51.816;-0.026;2023-02-27T01:11:51;102581.63;;;2.34;63.28
69223;BME280;56514;51.816;-0.026;2023-02-27T01:14:36;102585.94;;;2.32;62.26
69223;BME280;56514;51.816;-0.026;2023-02-27T01:17:21;102580.75;;;2.28;62.80
69223;BME280;56514;51.816;-0.026;2023-02-27T01:20:07;102578.19;;;2.25;62.75
69223;BME280;56514;51.816;-0.026;2023-02-27T01:22:52;102577.31;;;2.20;62.71
69223;BME280;56514;51.816;-0.026;2023-02-27T01:25:37;102574.72;;;2.20;63.07
69223;BME280;56514;51.816;-0.026;2023-02-27T01:28:23;102572.97;;;2.22;63.15
69223;BME280;56514;51.816;-0.026;2023-02-27T01:31:09;102573.84;;;2.27;63.17
69223;BME280;56514;51.816;-0.026;2023-02-27T01:33:55;102579.88;;;2.32;63.02
69223;BME280;56514;51.816;-0.026;2023-02-27T01:36:40;102579.84;;;2.35;63.47
69223;BME280;56514;51.816;-0.026;2023-02-27T01:39:26;102573.81;;;2.33;63.57
69223;BME280;56514;51.816;-0.026;2023-02-27T01:42:24;102573.81;;;2.34;63.98
69223;BME280;56514;51.816;-0.026;2023-02-27T01:48:02;102568.59;;;2.31;64.20
69223;BME280;56514;51.816;-0.026;2023-02-27T01:53:49;102569.44;;;2.35;64.47
69223;BME280;56514;51.816;-0.026;2023-02-27T01:56:36;102566.84;;;2.38;64.79
69223;BME280;56514;51.816;-0.026;2023-02-27T01:59:21;102561.63;;;2.41;64.92
69223;BME280;56514;51.816;-0.026;2023-02-27T02:02:16;102551.19;;;2.41;64.34
69223;BME280;56514;51.816;-0.026;2023-02-27T02:05:05;102560.75;;;2.42;65.09
69223;BME280;56514;51.816;-0.026;2023-02-27T02:07:51;102558.13;;;2.43;64.79
69223;BME280;56514;51.816;-0.026;2023-02-27T02:10:37;102560.72;;;2.43;64.45
69223;BME280;56514;51.816;-0.026;2023-02-27T02:13:24;102554.63;;;2.43;64.61
69223;BME280;56514;51.816;-0.026;2023-02-27T02:19:28;102546.84;;;2.40;65.13
69223;BME280;56514;51.816;-0.026;2023-02-27T02:49:59;102549.66;;;1.98;65.65
69223;BME280;56514;51.816;-0.026;2023-02-27T02:52:55;102542.72;;;1.94;65.20
69223;BME280;56514;51.816;-0.026;2023-02-27T02:58:44;102557.50;;;1.87;66.11
69223;BME280;56514;51.816;-0.026;2023-02-27T03:02:15;102554.91;;;1.86;67.19
69223;BME280;56514;51.816;-0.026;2023-02-27T03:05:06;102554.91;;;1.84;67.13
69223;BME280;56514;51.816;-0.026;2023-02-27T03:08:16;102566.16;;;1.83;67.91
69223;BME280;56514;51.816;-0.026;2023-02-27T03:11:04;102560.97;;;1.84;67.89
69223;BME280;56514;51.816;-0.026;2023-02-27T03:13:50;102557.53;;;1.83;67.56
69223;BME280;56514;51.816;-0.026;2023-02-27T03:16:41;102553.19;;;1.78;67.73
69223;BME280;56514;51.816;-0.026;2023-02-27T03:19:32;102549.72;;;1.79;68.17
69223;BME280;56514;51.816;-0.026;2023-02-27T03:22:26;102538.44;;;1.77;68.73
69223;BME280;56514;51.816;-0.026;2023-02-27T03:25:13;102547.97;;;1.77;69.16
69223;BME280;56514;51.816;-0.026;2023-02-27T03:28:07;102543.66;;;1.76;68.80
69223;BME280;56514;51.816;-0.026;2023-02-27T03:31:10;102537.56;;;1.75;69.15
69223;BME280;56514;51.816;-0.026;2023-02-27T03:34:07;102532.38;;;1.75;69.44
69223;BME280;56514;51.816;-0.026;2023-02-27T03:39:55;102534.13;;;1.76;69.94
69223;BME280;56514;51.816;-0.026;2023-02-27T03:43:39;102534.13;;;1.75;69.55
69223;BME280;56514;51.816;-0.026;2023-02-27T03:46:06;102536.72;;;1.75;70.20
69223;BME280;56514;51.816;-0.026;2023-02-27T03:48:53;102531.53;;;1.73;70.38
69223;BME280;56514;51.816;-0.026;2023-02-27T03:51:37;102534.97;;;1.74;70.23
69223;BME280;56514;51.816;-0.026;2023-02-27T03:54:30;102544.53;;;1.75;70.12
69223;BME280;56514;51.816;-0.026;2023-02-27T03:57:17;102549.75;;;1.73;70.28
69223;BME280;56514;51.816;-0.026;2023-02-27T04:00:05;102549.75;;;1.70;70.50
69223;BME280;56514;51.816;-0.026;2023-02-27T04:02:52;102551.47;;;1.68;70.64
69223;BME280;56514;51.816;-0.026;2023-02-27T04:05:37;102554.09;;;1.70;70.49
69223;BME280;56514;51.816;-0.026;2023-02-27T04:11:55;102556.69;;;1.71;70.93
69223;BME280;56514;51.816;-0.026;2023-02-27T04:20:50;102546.25;;;1.74;70.14
69223;BME280;56514;51.816;-0.026;2023-02-27T04:26:49;102537.56;;;1.77;70.18
69223;BME280;56514;51.816;-0.026;2023-02-27T04:29:49;102543.66;;;1.79;70.14
69223;BME280;56514;51.816;-0.026;2023-02-27T04:33:01;102546.25;;;1.79;69.60
69223;BME280;56514;51.816;-0.026;2023-02-27T04:35:52;102539.31;;;1.79;70.13
69223;BME280;56514;51.816;-0.026;2023-02-27T04:38:47;102541.91;;;1.81;69.90
69223;BME280;56514;51.816;-0.026;2023-02-27T04:41:57;102553.16;;;1.81;70.12
69223;BME280;56514;51.816;-0.026;2023-02-27T04:44:45;102547.97;;;1.80;69.65
69223;BME280;56514;51.816;-0.026;2023-02-27T04:47:37;102553.19;;;1.77;69.72
69223;BME280;56514;51.816;-0.026;2023-02-27T04:50:43;102555.78;;;1.75;69.80
69223;BME280;56514;51.816;-0.026;2023-02-27T04:54:00;102565.34;;;1.76;69.79
69223;BME280;56514;51.816;-0.026;2023-02-27T04:56:54;102564.44;;;1.83;69.24
69223;BME280;56514;51.816;-0.026;2023-02-27T04:59:43;102565.28;;;1.99;70.07
69223;BME280;56514;51.816;-0.026;2023-02-27T05:02:35;102551.31;;;2.15;70.35
69223;BME280;56514;51.816;-0.026;2023-02-27T05:05:25;102555.56;;;2.33;70.23
69223;BME280;56514;51.816;-0.026;2023-02-27T05:08:26;102538.97;;;2.49;69.90
69223;BME280;56514;51.816;-0.026;2023-02-27T05:11:37;102545.84;;;2.65;69.72
69223;BME280;56514;51.816;-0.026;2023-02-27T05:14:31;102552.66;;;2.79;69.42
69223;BME280;56514;51.816;-0.026;2023-02-27T05:17:21;102563.00;;;2.93;69.26
69223;BME280;56514;51.816;-0.026;2023-02-27T05:20:10;102556.88;;;3.01;69.14
69223;BME280;56514;51.816;-0.026;2023-02-27T05:25:58;102553.25;;;3.17;69.13
69223;BME280;56514;51.816;-0.026;2023-02-27T05:29:06;102557.50;;;3.27;69.23
69223;BME280;56514;51.816;-0.026;2023-02-27T05:32:04;102550.44;;;3.38;68.96
69223;BME280;56514;51.816;-0.026;2023-02-27T05:35:00;102550.34;;;3.46;69.30
69223;BME280;56514;51.816;-0.026;2023-02-27T05:37:52;102543.34;;;3.52;69.15
69223;BME280;56514;51.816;-0.026;2023-02-27T05:40:55;102543.25;;;3.60;68.74
69223;BME280;56514;51.816;-0.026;2023-02-27T05:43:55;102551.00;;;3.67;68.65
69223;BME280;56514;51.816;-0.026;2023-02-27T05:46:49;102555.31;;;3.73;68.60
69223;BME280;56514;51.816;-0.026;2023-02-27T05:49:40;102556.13;;;3.77;69.00
69223;BME280;56514;51.816;-0.026;2023-02-27T05:52:29;102561.34;;;3.78;68.67
69223;BME280;56514;51.816;-0.026;2023-02-27T05:55:25;102553.47;;;3.81;68.71
69223;BME280;56514;51.816;-0.026;2023-02-27T06:01:06;102547.34;;;3.85;68.73
69223;BME280;56514;51.816;-0.026;2023-02-27T06:03:51;102561.25;;;3.86;68.97
69223;BME280;56514;51.816;-0.026;2023-02-27T06:06:38;102564.69;;;3.89;69.32
69223;BME280;56514;51.816;-0.026;2023-02-27T06:09:25;102563.81;;;3.90;69.22
69223;BME280;56514;51.816;-0.026;2023-02-27T06:12:10;102562.91;;;3.94;69.41
69223;BME280;56514;51.816;-0.026;2023-02-27T06:14:57;102563.69;;;4.02;68.89
69223;BME280;56514;51.816;-0.026;2023-02-27T06:17:42;102561.88;;;4.06;69.16
69223;BME280;56514;51.816;-0.026;2023-02-27T06:20:26;102562.72;;;4.09;68.82
69223;BME280;56514;51.816;-0.026;2023-02-27T06:23:12;102561.81;;;4.10;69.59
69223;BME280;56514;51.816;-0.026;2023-02-27T06:25:57;102570.56;;;4.08;69.87
69223;BME280;56514;51.816;-0.026;2023-02-27T06:28:43;102571.47;;;4.07;69.88
69223;BME280;56514;51.816;-0.026;2023-02-27T06:31:28;102578.38;;;4.09;69.92
69223;BME280;56514;51.816;-0.026;2023-02-27T06:34:13;102584.44;;;4.14;69.87
69223;BME280;56514;51.816;-0.026;2023-02-27T06:36:58;102579.13;;;4.20;69.90
69223;BME280;56514;51.816;-0.026;2023-02-27T06:39:43;102583.47;;;4.21;69.78
69223;BME280;56514;51.816;-0.026;2023-02-27T06:42:27;102573.94;;;4.17;70.27
69223;BME280;56514;51.816;-0.026;2023-02-27T06:45:14;102576.53;;;4.19;70.90
69223;BME280;56514;51.816;-0.026;2023-02-27T06:47:59;102581.75;;;4.19;71.10
69223;BME280;56514;51.816;-0.026;2023-02-27T06:50:44;102584.31;;;4.23;70.78
69223;BME280;56514;51.816;-0.026;2023-02-27T06:53:29;102585.09;;;4.30;71.07
69223;BME280;56514;51.816;-0.026;2023-02-27T06:56:14;102585.06;;;4.31;70.97
69223;BME280;56514;51.816;-0.026;2023-02-27T06:58:59;102586.78;;;4.34;71.12
69223;BME280;56514;51.816;-0.026;2023-02-27T07:01:44;102585.03;;;4.34;71.72
69223;BME280;56514;51.816;-0.026;2023-02-27T07:04:29;102587.63;;;4.34;71.68
69223;BME280;56514;51.816;-0.026;2023-02-27T07:07:14;102596.41;;;4.30;72.47
69223;BME280;56514;51.816;-0.026;2023-02-27T07:09:59;102595.50;;;4.31;72.73
69223;BME280;56514;51.816;-0.026;2023-02-27T07:12:44;102598.09;;;4.34;72.48
69223;BME280;56514;51.816;-0.026;2023-02-27T07:15:28;102604.13;;;4.39;72.61
69223;BME280;56514;51.816;-0.026;2023-02-27T07:18:13;102598.81;;;4.45;72.46
69223;BME280;56514;51.816;-0.026;2023-02-27T07:20:58;102603.94;;;4.53;72.62
69223;BME280;56514;51.816;-0.026;2023-02-27T07:23:43;102602.13;;;4.59;72.60
69223;BME280;56514;51.816;-0.026;2023-02-27T07:26:28;102595.81;;;4.75;72.73
69223;BME280;56514;51.816;-0.026;2023-02-27T07:29:13;102599.78;;;4.99;71.86
69223;BME280;56514;51.816;-0.026;2023-02-27T07:32:01;102608.38;;;5.08;71.57
69223;BME280;56514;51.816;-0.026;2023-02-27T07:34:46;102595.34;;;5.05;71.24
69223;BME280;56514;51.816;-0.026;2023-02-27T07:37:31;102600.69;;;4.99;71.68
69223;BME280;56514;51.816;-0.026;2023-02-27T07:40:16;102604.09;;;5.01;71.99
69223;BME280;56514;51.816;-0.026;2023-02-27T07:43:01;102603.16;;;5.08;72.12
69223;BME280;56514;51.816;-0.026;2023-02-27T07:45:46;102604.72;;;5.18;71.71
69223;BME280;56514;51.816;-0.026;2023-02-27T07:48:32;102603.91;;;5.16;71.93
69223;BME280;56514;51.816;-0.026;2023-02-27T07:51:17;102608.41;;;5.07;71.91
69223;BME280;56514;51.816;-0.026;2023-02-27T07:54:03;102604.19;;;4.97;71.87
69223;BME280;56514;51.816;-0.026;2023-02-27T07:56:48;102604.28;;;4.91;72.45
69223;BME280;56514;51.816;-0.026;2023-02-27T07:59:33;102608.72;;;4.86;72.36
69223;BME280;56514;51.816;-0.026;2023-02-27T08:02:18;102612.22;;;4.85;72.30
69223;BME280;56514;51.816;-0.026;2023-02-27T08:05:04;102619.22;;;4.84;72.64
69223;BME280;56514;51.816;-0.026;2023-02-27T08:07:49;102625.94;;;4.99;72.90
69223;BME280;56514;51.816;-0.026;2023-02-27T08:10:35;102621.41;;;5.11;72.30
69223;BME280;56514;51.816;-0.026;2023-02-27T08:13:20;102622.84;;;5.29;71.87
69223;BME280;56514;51.816;-0.026;2023-02-27T08:16:06;102627.06;;;5.39;71.82
69223;BME280;56514;51.816;-0.026;2023-02-27T08:18:51;102633.66;;;5.61;71.38
69223;BME280;56514;51.816;-0.026;2023-02-27T08:21:37;102634.25;;;5.77;70.93
69223;BME280;56514;51.816;-0.026;2023-02-27T08:24:22;102633.16;;;5.90;70.66
69223;BME280;56514;51.816;-0.026;2023-02-27T08:27:07;102638.22;;;6.02;70.21
69223;BME280;56514;51.816;-0.026;2023-02-27T08:29:52;102640.53;;;6.17;69.81
69223;BME280;56514;51.816;-0.026;2023-02-27T08:32:37;102638.50;;;6.29;69.48
69223;BME280;56514;51.816;-0.026;2023-02-27T08:35:26;102637.41;;;6.41;69.44
69223;BME280;56514;51.816;-0.026;2023-02-27T08:38:11;102637.97;;;6.56;69.21
69223;BME280;56514;51.816;-0.026;2023-02-27T08:40:57;102634.91;;;6.76;68.67
69223;BME280;56514;51.816;-0.026;2023-02-27T08:43:42;102640.59;;;6.96;68.22
69223;BME280;56514;51.816;-0.026;2023-02-27T08:46:27;102633.44;;;7.01;67.89
69223;BME280;56514;51.816;-0.026;2023-02-27T08:49:13;102634.09;;;7.10;67.83
69223;BME280;56514;51.816;-0.026;2023-02-27T08:51:58;102632.91;;;7.25;67.65
69223;BME280;56514;51.816;-0.026;2023-02-27T08:54:44;102643.09;;;7.37;67.02
69223;BME280;56514;51.816;-0.026;2023-02-27T08:57:30;102643.66;;;7.50;67.28
69223;BME280;56514;51.816;-0.026;2023-02-27T09:00:15;102632.91;;;7.60;66.77
69223;BME280;56514;51.816;-0.026;2023-02-27T09:03:00;102643.66;;;7.50;66.97
69223;BME280;56514;51.816;-0.026;2023-02-27T09:05:47;102642.41;;;7.64;66.96
69223;BME280;56514;51.816;-0.026;2023-02-27T09:08:33;102638.22;;;7.89;66.73
69223;BME280;56514;51.816;-0.026;2023-02-27T09:11:18;102644.72;;;8.08;66.57
69223;BME280;56514;51.816;-0.026;2023-02-27T09:14:03;102647.94;;;8.19;65.98
69223;BME280;56514;51.816;-0.026;2023-02-27T09:16:48;102646.66;;;8.34;65.43
69223;BME280;56514;51.816;-0.026;2023-02-27T09:19:32;102642.50;;;8.57;64.70
69223;BME280;56514;51.816;-0.026;2023-02-27T09:22:18;102648.78;;;8.81;64.39
69223;BME280;56514;51.816;-0.026;2023-02-27T09:25:04;102646.94;;;8.84;63.54
69223;BME280;56514;51.816;-0.026;2023-02-27T09:27:49;102657.53;;;9.11;63.39
69223;BME280;56514;51.816;-0.026;2023-02-27T09:30:34;102655.91;;;9.33;62.76
69223;BME280;56514;51.816;-0.026;2023-02-27T09:33:18;102655.66;;;9.40;61.41
69223;BME280;56514;51.816;-0.026;2023-02-27T09:36:04;102653.63;;;9.22;61.15
69223;BME280;56514;51.816;-0.026;2023-02-27T09:38:49;102641.81;;;9.35;61.23
69223;BME280;56514;51.816;-0.026;2023-02-27T09:44:48;102639.50;;;9.77;60.50
69223;BME280;56514;51.816;-0.026;2023-02-27T09:47:38;102647.59;;;9.97;60.48
69223;BME280;56514;51.816;-0.026;2023-02-27T09:53:35;102640.28;;;9.54;58.58
69223;BME280;56514;51.816;-0.026;2023-02-27T09:56:31;102647.91;;;9.36;59.73
69223;BME280;56514;51.816;-0.026;2023-02-27T09:59:34;102654.81;;;9.40;60.29
69223;BME280;56514;51.816;-0.026;2023-02-27T10:05:35;102648.94;;;9.58;59.99
69223;BME280;56514;51.816;-0.026;2023-02-27T10:08:39;102650.03;;;9.77;59.28
69223;BME280;56514;51.816;-0.026;2023-02-27T10:11:39;102651.47;;;9.87;59.08
69223;BME280;56514;51.816;-0.026;2023-02-27T10:14:38;102652.06;;;9.95;59.03
69223;BME280;56514;51.816;-0.026;2023-02-27T10:17:28;102651.03;;;9.99;58.53
69223;BME280;56514;51.816;-0.026;2023-02-27T10:20:28;102659.47;;;10.10;58.43
69223;BME280;56514;51.816;-0.026;2023-02-27T10:23:18;102653.59;;;10.26;58.13
69223;BME280;56514;51.816;-0.026;2023-02-27T10:26:07;102653.72;;;10.46;58.05
69223;BME280;56514;51.816;-0.026;2023-02-27T10:29:04;102654.41;;;10.75;57.42
69223;BME280;56514;51.816;-0.026;2023-02-27T10:32:10;102640.25;;;10.99;56.61
69223;BME280;56514;51.816;-0.026;2023-02-27T10:35:33;102654.47;;;11.18;56.21
69223;BME280;56514;51.816;-0.026;2023-02-27T10:38:34;102657.06;;;11.41;55.08
69223;BME280;56514;51.816;-0.026;2023-02-27T10:41:21;102654.94;;;11.70;54.38
69223;BME280;56514;51.816;-0.026;2023-02-27T10:44:08;102650.00;;;11.83;54.48
69223;BME280;56514;51.816;-0.026;2023-02-27T10:46:54;102652.56;;;11.84;54.52
69223;BME280;56514;51.816;-0.026;2023-02-27T10:49:40;102655.47;;;11.57;54.22
69223;BME280;56514;51.816;-0.026;2023-02-27T10:52:26;102659.19;;;11.53;53.81
69223;BME280;56514;51.816;-0.026;2023-02-27T10:55:22;102666.00;;;11.58;54.33
69223;BME280;56514;51.816;-0.026;2023-02-27T10:58:07;102666.25;;;11.74;54.09
69223;BME280;56514;51.816;-0.026;2023-02-27T11:00:55;102666.47;;;11.89;54.12
69223;BME280;56514;51.816;-0.026;2023-02-27T11:03:42;102667.28;;;11.91;53.20
69223;BME280;56514;51.816;-0.026;2023-02-27T11:06:27;102667.09;;;11.96;53.79
69223;BME280;56514;51.816;-0.026;2023-02-27T11:09:27;102675.16;;;11.93;53.59
69223;BME280;56514;51.816;-0.026;2023-02-27T11:15:21;102664.41;;;11.33;53.61
69223;BME280;56514;51.816;-0.026;2023-02-27T11:18:20;102669.75;;;11.31;54.20
69223;BME280;56514;51.816;-0.026;2023-02-27T11:21:16;102674.31;;;11.06;54.34
69223;BME280;56514;51.816;-0.026;2023-02-27T11:24:09;102672.81;;;10.76;54.79
69223;BME280;56514;51.816;-0.026;2023-02-27T11:27:03;102669.94;;;10.59;55.25
69223;BME280;56514;51.816;-0.026;2023-02-27T11:30:05;102670.78;;;10.36;55.43
69223;BME280;56514;51.816;-0.026;2023-02-27T11:32:52;102669.75;;;10.42;56.00
69223;BME280;56514;51.816;-0.026;2023-02-27T11:35:38;102659.97;;;10.67;56.35
69223;BME280;56514;51.816;-0.026;2023-02-27T11:38:26;102661.69;;;10.91;55.74
69223;BME280;56514;51.816;-0.026;2023-02-27T11:41:12;102651.16;;;11.34;54.85
69223;BME280;56514;51.816;-0.026;2023-02-27T11:43:58;102650.06;;;11.81;54.24
69223;BME280;56514;51.816;-0.026;2023-02-27T11:46:46;102651.44;;;12.10;52.47
69223;BME280;56514;51.816;-0.026;2023-02-27T11:49:46;102643.66;;;12.07;52.05
69223;BME280;56514;51.816;-0.026;2023-02-27T11:52:52;102642.41;;;11.75;52.21
69223;BME280;56514;51.816;-0.026;2023-02-27T11:55:39;102640.19;;;11.43;52.81
69223;BME280;56514;51.816;-0.026;2023-02-27T11:58:28;102630.56;;;11.21;53.04
69223;BME280;56514;51.816;-0.026;2023-02-27T12:01:33;102628.69;;;11.24;53.47
69223;BME280;56514;51.816;-0.026;2023-02-27T12:04:32;102624.72;;;11.34;53.25
69223;BME280;56514;51.816;-0.026;2023-02-27T12:07:29;102619.19;;;11.40;53.35
69223;BME280;56514;51.816;-0.026;2023-02-27T12:10:20;102626.19;;;11.41;52.55
69223;BME280;56514;51.816;-0.026;2023-02-27T12:13:14;102619.44;;;11.34;52.53
69223;BME280;56514;51.816;-0.026;2023-02-27T12:16:30;102624.72;;;11.34;52.25
69223;BME280;56514;51.816;-0.026;2023-02-27T12:22:22;102616.56;;;11.60;52.19
69223;BME280;56514;51.816;-0.026;2023-02-27T12:25:43;102619.28;;;11.59;50.48
69223;BME280;56514;51.816;-0.026;2023-02-27T12:28:36;102610.47;;;11.58;51.37
69223;BME280;56514;51.816;-0.026;2023-02-27T12:37:25;102602.31;;;12.80;50.29
69223;BME280;56514;51.816;-0.026;2023-02-27T12:40:16;102607.69;;;13.16;49.45
69223;BME280;56514;51.816;-0.026;2023-02-27T12:46:18;102594.00;;;13.06;47.90
69223;BME280;56514;51.816;-0.026;2023-02-27T12:52:41;102591.50;;;12.85;48.16
69223;BME280;56514;51.816;-0.026;2023-02-27T12:55:33;102588.06;;;13.01;47.58
69223;BME280;56514;51.816;-0.026;2023-02-27T13:16:59;102572.00;;;12.11;47.74
69223;BME280;56514;51.816;-0.026;2023-02-27T13:20:27;102567.94;;;12.04;47.73
69223;BME280;56514;51.816;-0.026;2023-02-27T13:26:38;102571.81;;;12.34;47.01
69223;BME280;56514;51.816;-0.026;2023-02-27T13:29:31;102567.63;;;12.30;47.75
69223;BME280;56514;51.816;-0.026;2023-02-27T13:32:24;102567.34;;;12.91;47.25
69223;BME280;56514;51.816;-0.026;2023-02-27T13:38:28;102571.19;;;13.04;44.83
69223;BME280;56514;51.816;-0.026;2023-02-27T13:47:45;102557.69;;;15.78;43.06
69223;BME280;56514;51.816;-0.026;2023-02-27T13:53:16;102553.59;;;17.76;33.73
69223;BME280;56514;51.816;-0.026;2023-02-27T13:56:20;102557.25;;;16.14;37.79
69223;BME280;56514;51.816;-0.026;2023-02-27T13:59:11;102551.56;;;15.03;39.40
69223;BME280;56514;51.816;-0.026;2023-02-27T14:04:51;102544.44;;;13.76;41.57
69223;BME280;56514;51.816;-0.026;2023-02-27T14:07:54;102555.63;;;13.49;42.59
69223;BME280;56514;51.816;-0.026;2023-02-27T14:10:56;102547.19;;;14.40;41.99
69223;BME280;56514;51.816;-0.026;2023-02-27T14:19:45;102550.03;;;14.68;41.21
69223;BME280;56514;51.816;-0.026;2023-02-27T14:22:35;102549.03;;;17.39;38.40
69223;BME280;56514;51.816;-0.026;2023-02-27T14:25:34;102532.53;;;20.09;33.65
69223;BME280;56514;51.816;-0.026;2023-02-27T14:31:23;102543.44;;;22.38;29.99
69223;BME280;56514;51.816;-0.026;2023-02-27T14:34:13;102535.31;;;20.73;30.24
69223;BME280;56514;51.816;-0.026;2023-02-27T14:37:00;102542.41;;;18.93;31.96
69223;BME280;56514;51.816;-0.026;2023-02-27T14:39:50;102549.09;;;17.12;33.48
69223;BME280;56514;51.816;-0.026;2023-02-27T14:45:36;102555.97;;;14.58;36.77
69223;BME280;56514;51.816;-0.026;2023-02-27T14:48:26;102543.03;;;13.86;38.08
69223;BME280;56514;51.816;-0.026;2023-02-27T14:51:14;102552.97;;;13.66;38.75
69223;BME280;56514;51.816;-0.026;2023-02-27T14:54:10;102549.44;;;13.65;39.38
69223;BME280;56514;51.816;-0.026;2023-02-27T14:57:04;102556.56;;;13.48;39.16
69223;BME280;56514;51.816;-0.026;2023-02-27T14:59:51;102553.34;;;13.24;39.19
69223;BME280;56514;51.816;-0.026;2023-02-27T15:02:36;102557.34;;;13.33;39.92
69223;BME280;56514;51.816;-0.026;2023-02-27T15:05:28;102541.44;;;13.33;40.09
69223;BME280;56514;51.816;-0.026;2023-02-27T15:08:27;102534.25;;;13.35;40.49
69223;BME280;56514;51.816;-0.026;2023-02-27T15:11:17;102531.09;;;14.43;40.39
69223;BME280;56514;51.816;-0.026;2023-02-27T15:14:05;102522.53;;;18.00;32.58
69223;BME280;56514;51.816;-0.026;2023-02-27T15:16:56;102520.78;;;18.96;30.21
69223;BME280;56514;51.816;-0.026;2023-02-27T15:19:59;102510.38;;;18.81;30.88
69223;BME280;56514;51.816;-0.026;2023-02-27T15:22:44;102514.78;;;20.30;29.38
69223;BME280;56514;51.816;-0.026;2023-02-27T15:25:37;102512.94;;;19.17;29.69
69223;BME280;56514;51.816;-0.026;2023-02-27T15:28:31;102519.22;;;17.72;31.25
69223;BME280;56514;51.816;-0.026;2023-02-27T15:31:21;102516.81;;;16.50;32.34
69223;BME280;56514;51.816;-0.026;2023-02-27T15:34:10;102517.97;;;15.61;34.00
69223;BME280;56514;51.816;-0.026;2023-02-27T15:36:58;102516.47;;;15.12;35.45
69223;BME280;56514;51.816;-0.026;2023-02-27T15:39:44;102518.34;;;15.10;35.84
69223;BME280;56514;51.816;-0.026;2023-02-27T15:42:31;102515.16;;;15.19;35.75
69223;BME280;56514;51.816;-0.026;2023-02-27T15:45:21;102525.00;;;14.57;37.45
69223;BME280;56514;51.816;-0.026;2023-02-27T15:48:12;102525.34;;;14.02;38.37
69223;BME280;56514;51.816;-0.026;2023-02-27T15:51:01;102510.72;;;13.95;39.41
69223;BME280;56514;51.816;-0.026;2023-02-27T15:53:48;102519.66;;;15.03;37.67
69223;BME280;56514;51.816;-0.026;2023-02-27T15:56:35;102508.06;;;14.59;36.90
69223;BME280;56514;51.816;-0.026;2023-02-27T15:59:21;102519.00;;;13.89;37.70
69223;BME280;56514;51.816;-0.026;2023-02-27T16:02:33;102519.03;;;15.87;37.96
69223;BME280;56514;51.816;-0.026;2023-02-27T16:05:33;102504.50;;;19.80;32.13
69223;BME280;56514;51.816;-0.026;2023-02-27T16:08:19;102512.38;;;20.69;28.49
69223;BME280;56514;51.816;-0.026;2023-02-27T16:11:04;102506.25;;;19.11;29.89
69223;BME280;56514;51.816;-0.026;2023-02-27T16:13:49;102518.19;;;17.35;31.60
69223;BME280;56514;51.816;-0.026;2023-02-27T16:16:35;102517.97;;;16.04;33.59
69223;BME280;56514;51.816;-0.026;2023-02-27T16:19:29;102523.28;;;15.02;35.10
69223;BME280;56514;51.816;-0.026;2023-02-27T16:22:16;102521.00;;;14.17;36.78
69223;BME280;56514;51.816;-0.026;2023-02-27T16:25:09;102541.59;;;13.47;37.67
69223;BME280;56514;51.816;-0.026;2023-02-27T16:28:00;102527.31;;;12.97;38.79
69223;BME280;56514;51.816;-0.026;2023-02-27T16:30:52;102526.53;;;12.59;39.05
69223;BME280;56514;51.816;-0.026;2023-02-27T16:33:38;102539.84;;;13.29;39.91
69223;BME280;56514;51.816;-0.026;2023-02-27T16:36:29;102535.19;;;14.80;37.04
69223;BME280;56514;51.816;-0.026;2023-02-27T16:39:16;102537.13;;;17.18;34.52
69223;BME280;56514;51.816;-0.026;2023-02-27T16:42:04;102526.66;;;19.71;30.92
69223;BME280;56514;51.816;-0.026;2023-02-27T16:44:49;102526.84;;;20.35;28.52
69223;BME280;56514;51.816;-0.026;2023-02-27T16:47:34;102527.41;;;18.80;29.98
69223;BME280;56514;51.816;-0.026;2023-02-27T16:50:38;102540.09;;;16.87;32.28
69223;BME280;56514;51.816;-0.026;2023-02-27T16:53:27;102541.91;;;15.16;34.39
69223;BME280;56514;51.816;-0.026;2023-02-27T16:56:14;102546.88;;;14.13;35.82
69223;BME280;56514;51.816;-0.026;2023-02-27T16:59:00;102536.97;;;13.33;37.26
69223;BME280;56514;51.816;-0.026;2023-02-27T17:01:47;102546.91;;;12.76;38.10
69223;BME280;56514;51.816;-0.026;2023-02-27T17:04:31;102543.88;;;12.29;38.98
69223;BME280;56514;51.816;-0.026;2023-02-27T17:07:17;102564.00;;;11.94;39.61